Time;durP1;ratioP1;P1;durP2;ratioP2;P2;SDS_P1;SDS_P2;PMS_P1;PMS_P2;Temp;Humidity;BMP_temperature;BMP_pressure;BME280_temperature;BME280_humidity;BME280_pressure;Samples;Min_cycle;Max_cycle;Signal;HPM_P1;HPM_P2
2021/10/12 00:03:36;;;;;;;;;;;;;;;;;;8358145;28;20264;-66
2021/10/12 00:07:36;;;;;;;;;;;8.10;99.90;;;;;;8357689;28;19909;-66
2021/10/12 00:11:37;;;;;;;;;;;8.30;99.90;;;;;;8357498;28;19916;-66
2021/10/12 00:15:37;;;;;;;;;;;8.50;99.90;;;;;;8356688;28;19913;-66
2021/10/12 00:19:38;;;;;;;;;;;8.50;99.90;;;;;;8378808;28;19916;-66
2021/10/12 00:23:38;;;;;;;;;;;8.30;99.90;;;;;;8359374;28;19921;-66
2021/10/12 00:27:39;;;;;;;;;;;8.30;99.90;;;;;;8355329;28;19912;-66
2021/10/12 00:31:39;;;;;;;;;;;8.20;99.90;;;;;;8357227;28;19921;-66
2021/10/12 00:35:40;;;;;;;;;;;8.00;99.90;;;;;;8355496;28;19913;-66
2021/10/12 00:39:41;;;;;;;;;;;8.10;99.90;;;;;;8355311;28;20434;-66
2021/10/12 00:43:41;;;;;;;;;;;8.10;99.90;;;;;;8362149;28;19915;-66
2021/10/12 00:47:58;;;;;;;;;;;8.00;99.90;;;;;;8392698;28;19909;-66
2021/10/12 00:51:59;;;;;;;;;;;8.00;99.90;;;;;;8393591;28;19931;-66
2021/10/12 00:55:59;;;;;;;;;;;8.00;99.90;;;;;;8391907;28;19908;-66
2021/10/12 01:00:00;;;;;;;;;;;8.10;99.90;;;;;;8392199;28;19909;-66
2021/10/12 01:04:00;;;;;;;;;;;8.00;99.90;;;;;;8393433;28;19909;-66
2021/10/12 01:08:01;;;;;;;;;;;8.10;99.90;;;;;;8392387;28;19966;-66
2021/10/12 01:12:01;;;;;;;;;;;7.90;99.90;;;;;;8391990;28;20412;-66
2021/10/12 01:16:02;;;;;;;;;;;8.10;99.90;;;;;;8390775;28;19958;-66
2021/10/12 01:20:07;;;;;;;;;;;8.00;99.90;;;;;;8391476;28;20329;-66
2021/10/12 01:24:07;;;;;;;;;;;8.00;99.90;;;;;;8392373;28;19935;-66
2021/10/12 01:28:08;;;;;;;;;;;8.10;99.90;;;;;;8392415;28;20078;-66
2021/10/12 01:32:09;;;;;;;;;;;8.10;99.90;;;;;;8391295;28;20321;-66
2021/10/12 01:36:09;;;;;;;;;;;8.00;99.90;;;;;;8391869;28;19908;-66
2021/10/12 01:40:11;;;;;;;;;;;7.90;99.90;;;;;;8392155;28;20448;-67
2021/10/12 01:44:13;;;;;;;;;;;7.70;99.90;;;;;;8392296;28;19912;-66
2021/10/12 01:48:13;;;;;;;;;;;7.90;99.90;;;;;;8390674;28;19908;-66
2021/10/12 01:52:14;;;;;;;;;;;8.10;99.90;;;;;;8392155;28;20007;-66
2021/10/12 01:56:14;;;;;;;;;;;7.80;99.90;;;;;;8391489;28;19916;-66
2021/10/12 02:00:15;;;;;;;;;;;7.60;99.90;;;;;;8390744;28;19909;-66
2021/10/12 02:04:15;;;;;;;;;;;7.70;99.90;;;;;;8390348;28;19965;-66
2021/10/12 02:08:16;;;;;;;;;;;7.60;99.90;;;;;;8390279;28;19908;-65
2021/10/12 02:12:16;;;;;;;;;;;7.70;99.90;;;;;;8390336;28;19916;-66
2021/10/12 02:16:17;;;;;;;;;;;7.70;99.90;;;;;;8391107;28;20357;-65
2021/10/12 02:20:17;;;;;;;;;;;8.20;99.90;;;;;;8394969;28;19916;-66
2021/10/12 02:24:18;;;;;;;;;;;8.00;99.90;;;;;;8397896;28;20393;-66
2021/10/12 02:28:18;;;;;;;;;;;8.00;99.90;;;;;;8397602;28;19961;-66
2021/10/12 02:32:19;;;;;;;;;;;8.00;99.90;;;;;;8397824;28;19908;-66
2021/10/12 02:36:19;;;;;;;;;;;8.10;99.90;;;;;;8396743;28;19913;-66
2021/10/12 02:40:20;;;;;;;;;;;8.10;99.90;;;;;;8397377;28;19908;-66
2021/10/12 02:44:20;;;;;;;;;;;8.00;99.90;;;;;;8397138;28;19915;-66
2021/10/12 02:48:21;;;;;;;;;;;8.00;99.90;;;;;;8397138;28;19908;-67
2021/10/12 02:52:21;;;;;;;;;;;7.70;99.90;;;;;;8395667;28;19991;-68
2021/10/12 02:56:21;;;;;;;;;;;7.70;99.90;;;;;;8378985;28;19916;-68
2021/10/12 03:00:22;;;;;;;;;;;7.60;99.90;;;;;;8385927;28;19913;-68
2021/10/12 03:04:22;;;;;;;;;;;7.50;99.90;;;;;;8363648;28;19924;-67
2021/10/12 03:08:23;;;;;;;;;;;7.80;99.90;;;;;;8361658;28;20289;-68
2021/10/12 03:12:23;;;;;;;;;;;7.70;99.90;;;;;;8362882;28;19916;-68
2021/10/12 03:16:24;;;;;;;;;;;7.70;99.90;;;;;;8388744;28;19951;-68
2021/10/12 03:20:24;;;;;;;;;;;7.50;99.90;;;;;;8379064;28;20015;-68
2021/10/12 03:24:25;;;;;;;;;;;7.50;99.90;;;;;;8381984;28;19962;-68
2021/10/12 03:28:25;;;;;;;;;;;7.50;99.90;;;;;;8378939;28;20363;-67
2021/10/12 03:32:26;;;;;;;;;;;7.60;99.90;;;;;;8376732;28;20378;-67
2021/10/12 03:36:26;;;;;;;;;;;7.90;99.90;;;;;;8370834;28;20283;-67
2021/10/12 03:40:27;;;;;;;;;;;7.80;99.90;;;;;;8362582;28;20114;-68
2021/10/12 03:44:29;;;;;;;;;;;7.80;99.90;;;;;;8362383;28;20299;-68
2021/10/12 03:48:30;;;;;;;;;;;7.80;99.90;;;;;;8362414;28;20272;-68
2021/10/12 03:52:30;;;;;;;;;;;7.60;99.90;;;;;;8376568;28;20018;-68
2021/10/12 03:56:30;;;;;;;;;;;7.50;99.90;;;;;;8393527;28;19912;-68
2021/10/12 04:00:31;;;;;;;;;;;7.60;99.90;;;;;;8395313;28;19908;-68
2021/10/12 04:04:31;;;;;;;;;;;7.50;99.90;;;;;;8394250;28;19965;-68
2021/10/12 04:08:32;;;;;;;;;;;7.40;99.90;;;;;;8394371;28;19923;-68
2021/10/12 04:12:32;;;;;;;;;;;7.60;99.90;;;;;;8390618;28;20507;-68
2021/10/12 04:16:35;;;;;;;;;;;7.60;99.90;;;;;;8390106;28;19912;-68
2021/10/12 04:20:35;;;;;;;;;;;7.70;99.90;;;;;;8394103;28;19969;-67
2021/10/12 04:24:37;;;;;;;;;;;7.90;99.90;;;;;;8372780;28;19931;-67
2021/10/12 04:28:37;;;;;;;;;;;8.00;99.90;;;;;;8370238;28;20277;-67
2021/10/12 04:32:38;;;;;;;;;;;8.20;99.90;;;;;;8359650;28;19956;-68
2021/10/12 04:36:38;;;;;;;;;;;7.90;99.90;;;;;;8360798;28;20007;-68
2021/10/12 04:40:41;;;;;;;;;;;7.90;99.90;;;;;;8359809;28;19912;-67
2021/10/12 04:44:41;;;;;;;;;;;7.80;99.90;;;;;;8358925;28;19928;-66
2021/10/12 04:48:42;;;;;;;;;;;7.80;99.90;;;;;;8358961;28;19936;-66
2021/10/12 04:52:43;;;;;;;;;;;7.90;99.90;;;;;;8373320;28;19912;-66
2021/10/12 04:56:44;;;;;;;;;;;8.00;99.90;;;;;;8372258;28;20412;-66
2021/10/12 05:00:44;;;;;;;;;;;7.90;99.90;;;;;;8390438;28;19919;-66
2021/10/12 05:04:45;;;;;;;;;;;8.00;99.90;;;;;;8392198;28;19913;-66
2021/10/12 05:08:45;;;;;;;;;;;8.10;99.90;;;;;;8391853;28;20321;-66
2021/10/12 05:12:45;;;;;;;;;;;8.00;99.90;;;;;;8393166;28;19928;-66
2021/10/12 05:16:49;;;;;;;;;;;7.80;99.90;;;;;;8391150;28;19957;-66
2021/10/12 05:20:49;;;;;;;;;;;7.70;99.90;;;;;;8392496;28;20402;-66
2021/10/12 05:24:50;;;;;;;;;;;7.60;99.90;;;;;;8392541;28;19909;-66
2021/10/12 05:28:51;;;;;;;;;;;7.60;99.90;;;;;;8393039;28;20007;-66
2021/10/12 05:32:52;;;;;;;;;;;7.80;99.90;;;;;;8392991;28;19915;-66
2021/10/12 05:36:54;;;;;;;;;;;7.70;99.90;;;;;;8392034;28;21227;-66
2021/10/12 05:40:54;;;;;;;;;;;7.70;99.90;;;;;;8392770;28;19909;-66
2021/10/12 05:44:55;;;;;;;;;;;7.80;99.90;;;;;;8392408;28;19908;-66
2021/10/12 05:48:56;;;;;;;;;;;7.80;99.90;;;;;;8392621;28;19916;-66
2021/10/12 05:57:20;;;;;;;;;;;7.70;99.90;;;;;;8403263;28;20035;-66
2021/10/12 06:01:22;;;;;;;;;;;7.90;99.90;;;;;;8403196;28;19962;-66
2021/10/12 06:05:22;;;;;;;;;;;7.80;99.90;;;;;;8401158;28;19974;-66
2021/10/12 06:09:22;;;;;;;;;;;7.80;99.90;;;;;;8403052;28;20007;-66
2021/10/12 06:13:23;;;;;;;;;;;7.80;99.90;;;;;;8402750;28;19919;-66
2021/10/12 06:17:23;;;;;;;;;;;7.80;99.90;;;;;;8401024;28;20310;-66
2021/10/12 06:21:24;;;;;;;;;;;7.80;99.90;;;;;;8401160;28;20287;-66
2021/10/12 06:25:24;;;;;;;;;;;7.80;99.90;;;;;;8401047;28;19913;-66
2021/10/12 06:29:25;;;;;;;;;;;8.00;99.90;;;;;;8401402;28;19912;-66
2021/10/12 06:33:25;;;;;;;;;;;8.00;99.90;;;;;;8402706;28;20328;-66
2021/10/12 06:37:26;;;;;;;;;;;8.20;99.90;;;;;;8402146;28;20290;-66
2021/10/12 06:41:26;;;;;;;;;;;8.40;99.90;;;;;;8401096;28;20285;-65
2021/10/12 06:45:27;;;;;;;;;;;8.50;99.90;;;;;;8402027;28;19923;-66
2021/10/12 06:49:28;;;;;;;;;;;8.40;99.90;;;;;;8402248;28;19915;-66
2021/10/12 06:53:28;;;;;;;;;;;8.50;99.90;;;;;;8402484;28;20298;-66
2021/10/12 06:57:28;;;;;;;;;;;8.60;99.90;;;;;;8400609;28;19913;-65
2021/10/12 07:01:29;;;;;;;;;;;8.60;99.90;;;;;;8400819;28;20252;-65
2021/10/12 07:05:30;;;;;;;;;;;8.60;99.90;;;;;;8397821;28;19915;-65
2021/10/12 07:09:30;;;;;;;;;;;8.70;99.90;;;;;;8396800;28;20038;-65
2021/10/12 07:13:31;;;;;;;;;;;8.80;99.90;;;;;;8396776;28;19918;-66
2021/10/12 07:17:32;;;;;;;;;;;8.80;99.90;;;;;;8394748;28;19912;-65
2021/10/12 07:21:33;;;;;;;;;;;8.80;99.90;;;;;;8396467;28;19917;-65
2021/10/12 07:25:33;;;;;;;;;;;8.90;99.90;;;;;;8395984;28;19919;-65
2021/10/12 07:29:34;;;;;;;;;;;8.80;99.90;;;;;;8396486;28;20374;-66
2021/10/12 07:33:35;;;;;;;;;;;9.00;99.90;;;;;;8396507;28;19912;-65
2021/10/12 07:37:37;;;;;;;;;;;9.10;99.90;;;;;;8396165;28;19958;-65
2021/10/12 07:41:38;;;;;;;;;;;9.20;99.90;;;;;;8394804;28;19944;-65
2021/10/12 07:45:38;;;;;;;;;;;9.20;99.90;;;;;;8395616;28;20306;-65
2021/10/12 07:49:39;;;;;;;;;;;9.40;99.90;;;;;;8394273;28;19908;-65
2021/10/12 07:53:40;;;;;;;;;;;9.30;99.90;;;;;;8395335;28;19915;-65
2021/10/12 07:57:40;;;;;;;;;;;9.30;99.90;;;;;;8393789;28;19922;-65
2021/10/12 08:01:41;;;;;;;;;;;9.40;99.90;;;;;;8395096;28;19917;-65
2021/10/12 08:05:41;;;;;;;;;;;9.40;99.90;;;;;;8394667;28;20387;-65
2021/10/12 08:09:42;;;;;;;;;;;9.40;99.90;;;;;;8395043;28;20456;-66
2021/10/12 08:13:42;;;;;;;;;;;9.60;99.90;;;;;;8394957;28;19909;-65
2021/10/12 08:17:43;;;;;;;;;;;9.80;99.90;;;;;;8392664;28;19912;-65
2021/10/12 08:21:43;;;;;;;;;;;9.70;99.90;;;;;;8395517;28;19927;-65
2021/10/12 08:25:44;;;;;;;;;;;9.70;99.90;;;;;;8393209;28;19912;-65
2021/10/12 08:29:44;;;;;;;;;;;9.80;99.90;;;;;;8393412;28;19912;-65
2021/10/12 08:33:46;;;;;;;;;;;9.70;99.90;;;;;;8394633;28;19909;-65
2021/10/12 08:37:46;;;;;;;;;;;9.60;99.90;;;;;;8394128;28;19966;-65
2021/10/12 08:41:51;;;;;;;;;;;9.90;99.90;;;;;;8393048;28;20374;-65
2021/10/12 08:45:51;;;;;;;;;;;10.10;99.90;;;;;;8392454;28;19997;-65
2021/10/12 08:49:52;;;;;;;;;;;10.20;99.90;;;;;;8393759;28;19962;-66
2021/10/12 08:53:53;;;;;;;;;;;10.50;99.90;;;;;;8393351;28;19947;-66
2021/10/12 08:57:54;;;;;;;;;;;10.60;99.90;;;;;;8393251;28;19916;-66
2021/10/12 09:01:56;;;;;;;;;;;10.50;99.90;;;;;;8393173;28;20398;-65
2021/10/12 09:05:58;;;;;;;;;;;10.60;99.90;;;;;;8392798;28;19909;-65
2021/10/12 09:09:59;;;;;;;;;;;10.60;99.90;;;;;;8392987;28;20299;-66
2021/10/12 09:14:07;;;;;;;;;;;10.80;99.90;;;;;;8391737;28;19991;-66
2021/10/12 09:18:07;;;;;;;;;;;10.70;99.90;;;;;;8392443;28;19912;-66
2021/10/12 09:22:08;;;;;;;;;;;10.80;99.90;;;;;;8392474;28;20010;-65
2021/10/12 09:26:19;;;;;;;;;;;10.90;99.90;;;;;;8392275;28;19944;-65
2021/10/12 09:30:25;;;;;;;;;;;10.70;99.90;;;;;;8391753;28;19912;-66
2021/10/12 09:34:31;;;;;;;;;;;10.60;99.90;;;;;;8391106;28;19908;-66
2021/10/12 09:38:32;;;;;;;;;;;10.30;99.90;;;;;;8391964;28;19920;-66
2021/10/12 09:42:40;;;;;;;;;;;10.40;99.90;;;;;;8392342;28;20267;-66
2021/10/12 09:46:42;;;;;;;;;;;10.50;99.90;;;;;;8391830;28;19913;-66
2021/10/12 09:50:42;;;;;;;;;;;10.50;99.90;;;;;;8391984;28;19912;-66
2021/10/12 09:54:48;;;;;;;;;;;10.30;99.90;;;;;;8391766;28;20010;-65
2021/10/12 09:58:49;;;;;;;;;;;10.20;99.90;;;;;;8391890;28;19954;-66
2021/10/12 10:02:50;;;;;;;;;;;10.10;99.90;;;;;;8390389;28;19909;-65
2021/10/12 10:06:52;;;;;;;;;;;9.90;99.90;;;;;;8391545;28;19912;-65
2021/10/12 10:10:52;;;;;;;;;;;9.90;99.90;;;;;;8390558;28;19909;-65
2021/10/12 10:14:53;;;;;;;;;;;9.80;99.90;;;;;;8390055;28;19915;-65
2021/10/12 10:18:54;;;;;;;;;;;9.70;99.90;;;;;;8391853;28;19916;-65
2021/10/12 10:22:57;;;;;;;;;;;9.80;99.90;;;;;;8390488;28;20429;-65
2021/10/12 10:26:57;;;;;;;;;;;9.80;99.90;;;;;;8389959;28;20394;-65
2021/10/12 10:30:59;;;;;;;;;;;9.70;99.90;;;;;;8391466;28;19915;-65
2021/10/12 10:35:00;;;;;;;;;;;9.70;99.90;;;;;;8391520;28;19909;-65
2021/10/12 10:39:01;;;;;;;;;;;9.60;99.90;;;;;;8392964;28;19916;-65
2021/10/12 10:43:01;;;;;;;;;;;9.80;99.90;;;;;;8398096;28;19909;-65
2021/10/12 10:47:02;;;;;;;;;;;9.70;99.90;;;;;;8396288;28;20335;-65
2021/10/12 10:51:18;;;;;;;;;;;9.90;99.90;;;;;;8398209;28;19956;-65
2021/10/12 10:55:22;;;;;;;;;;;9.90;99.90;;;;;;8396419;28;20294;-65
2021/10/12 10:59:24;;;;;;;;;;;9.80;99.90;;;;;;8397234;28;19913;-65
2021/10/12 11:03:25;;;;;;;;;;;9.60;99.90;;;;;;8395787;28;19935;-65
2021/10/12 11:07:26;;;;;;;;;;;9.50;99.90;;;;;;8396632;28;19913;-65
2021/10/12 11:11:45;;;;;;;;;;;9.50;99.90;;;;;;8395814;28;19913;-65
2021/10/12 11:15:50;;;;;;;;;;;9.60;99.90;;;;;;8396737;28;19908;-65
2021/10/12 11:19:57;;;;;;;;;;;9.80;99.90;;;;;;8396796;28;19913;-65
2021/10/12 11:24:00;;;;;;;;;;;9.90;99.90;;;;;;8396889;28;20363;-65
2021/10/12 11:28:07;;;;;;;;;;;9.80;99.90;;;;;;8396389;28;19908;-65
2021/10/12 11:32:08;;;;;;;;;;;9.70;99.90;;;;;;8396480;28;20378;-65
2021/10/12 11:36:09;;;;;;;;;;;9.80;99.90;;;;;;8395895;28;19912;-65
2021/10/12 11:40:13;;;;;;;;;;;10.10;99.90;;;;;;8395896;28;19919;-65
2021/10/12 11:44:18;;;;;;;;;;;10.30;99.90;;;;;;8395928;28;19947;-65
2021/10/12 11:48:19;;;;;;;;;;;10.60;99.90;;;;;;8395442;28;20408;-65
2021/10/12 11:52:19;;;;;;;;;;;10.90;99.90;;;;;;8393668;28;20366;-66
2021/10/12 11:56:20;;;;;;;;;;;11.30;99.90;;;;;;8392693;28;19913;-66
2021/10/12 12:00:37;;;;;;;;;;;11.50;99.90;;;;;;8395302;28;19912;-66
2021/10/12 12:04:37;;;;;;;;;;;11.60;99.90;;;;;;8395157;28;19908;-66
2021/10/12 12:08:40;;;;;;;;;;;11.60;99.90;;;;;;8395039;28;19908;-66
2021/10/12 12:12:41;;;;;;;;;;;11.60;99.90;;;;;;8393572;28;19908;-66
2021/10/12 12:16:41;;;;;;;;;;;11.70;99.90;;;;;;8394283;28;19916;-66
2021/10/12 12:20:58;;;;;;;;;;;11.80;99.90;;;;;;8394162;28;19917;-66
2021/10/12 12:25:10;;;;;;;;;;;11.70;99.90;;;;;;8392637;28;19966;-66
2021/10/12 12:29:18;;;;;;;;;;;11.90;99.90;;;;;;8394495;28;19977;-66
2021/10/12 12:33:18;;;;;;;;;;;11.70;99.90;;;;;;8394278;28;19909;-65
2021/10/12 12:37:23;;;;;;;;;;;11.50;99.90;;;;;;8392581;28;19933;-66
2021/10/12 12:41:23;;;;;;;;;;;11.70;99.90;;;;;;8393765;28;19916;-66
2021/10/12 12:45:24;;;;;;;;;;;12.10;99.90;;;;;;8393381;28;19908;-65
2021/10/12 12:49:25;;;;;;;;;;;12.40;99.90;;;;;;8393772;28;19912;-66
2021/10/12 12:53:39;;;;;;;;;;;13.00;99.90;;;;;;8391334;28;19995;-66
2021/10/12 12:57:53;;;;;;;;;;;13.10;99.90;;;;;;8392946;28;19948;-66
2021/10/12 13:01:53;;;;;;;;;;;13.00;99.90;;;;;;8392782;28;19956;-66
2021/10/12 13:05:53;;;;;;;;;;;12.90;99.90;;;;;;8392241;28;19909;-66
2021/10/12 13:09:54;;;;;;;;;;;12.60;99.90;;;;;;8393117;28;19912;-66
2021/10/12 13:13:54;;;;;;;;;;;12.30;99.90;;;;;;8393070;28;19912;-66
2021/10/12 13:17:55;;;;;;;;;;;12.10;99.90;;;;;;8392306;28;20011;-66
2021/10/12 13:21:55;;;;;;;;;;;11.90;99.90;;;;;;8392594;28;19916;-66
2021/10/12 13:25:56;;;;;;;;;;;11.60;99.90;;;;;;8392301;28;19908;-66
2021/10/12 13:29:56;;;;;;;;;;;11.30;99.90;;;;;;8392660;28;19924;-66
2021/10/12 13:33:57;;;;;;;;;;;11.10;99.90;;;;;;8392637;28;19943;-66
2021/10/12 13:37:58;;;;;;;;;;;11.20;99.90;;;;;;8391128;28;19936;-66
2021/10/12 13:42:00;;;;;;;;;;;11.10;99.90;;;;;;8391134;28;19917;-66
2021/10/12 13:46:00;;;;;;;;;;;11.10;99.90;;;;;;8384386;28;19917;-66
2021/10/12 13:50:01;;;;;;;;;;;11.20;99.90;;;;;;8377751;28;19971;-65
2021/10/12 13:54:01;;;;;;;;;;;11.20;99.90;;;;;;8374914;28;20379;-65
2021/10/12 13:58:02;;;;;;;;;;;11.40;99.90;;;;;;8374591;28;20009;-65
2021/10/12 14:02:03;;;;;;;;;;;12.00;99.90;;;;;;8373709;28;19914;-65
2021/10/12 14:06:03;;;;;;;;;;;12.10;99.90;;;;;;8378747;28;19913;-65
2021/10/12 14:10:04;;;;;;;;;;;11.90;99.90;;;;;;8376837;28;19979;-65
2021/10/12 14:14:05;;;;;;;;;;;11.90;99.90;;;;;;8391521;28;19912;-66
2021/10/12 14:18:06;;;;;;;;;;;12.20;99.90;;;;;;8398499;28;19916;-65
2021/10/12 14:22:06;;;;;;;;;;;12.00;99.90;;;;;;8397484;28;19920;-65
2021/10/12 14:26:07;;;;;;;;;;;11.90;99.90;;;;;;8397412;28;19908;-65
2021/10/12 14:30:07;;;;;;;;;;;11.80;99.90;;;;;;8396610;28;20007;-65
2021/10/12 14:34:08;;;;;;;;;;;11.70;99.90;;;;;;8378203;28;19920;-66
2021/10/12 14:38:08;;;;;;;;;;;11.60;99.90;;;;;;8382158;28;19927;-65
2021/10/12 14:42:09;;;;;;;;;;;11.50;99.90;;;;;;8364333;28;19913;-66
2021/10/12 14:46:09;;;;;;;;;;;11.30;99.90;;;;;;8362697;28;19920;-65
2021/10/12 14:50:12;;;;;;;;;;;11.10;99.90;;;;;;8381864;28;19924;-65
2021/10/12 14:54:13;;;;;;;;;;;10.80;99.90;;;;;;8372138;28;19923;-64
2021/10/12 14:58:13;;;;;;;;;;;10.70;99.90;;;;;;8379268;28;19968;-64
2021/10/12 15:02:14;;;;;;;;;;;10.70;99.90;;;;;;8383377;28;19921;-64
2021/10/12 15:06:15;;;;;;;;;;;10.90;99.90;;;;;;8365838;28;20302;-64
2021/10/12 15:10:15;;;;;;;;;;;11.00;99.90;;;;;;8379338;28;19920;-64
2021/10/12 15:14:16;;;;;;;;;;;10.90;99.90;;;;;;8379497;28;19917;-65
2021/10/12 15:18:16;;;;;;;;;;;10.90;99.90;;;;;;8372095;28;19916;-64
2021/10/12 15:22:16;;;;;;;;;;;11.00;99.90;;;;;;8375465;28;20291;-64
2021/10/12 15:26:17;;;;;;;;;;;10.80;99.90;;;;;;8361794;28;19916;-64
2021/10/12 15:30:17;;;;;;;;;;;10.70;99.90;;;;;;8370854;28;19991;-64
2021/10/12 15:34:18;;;;;;;;;;;10.80;99.90;;;;;;8378674;28;19912;-64
2021/10/12 15:38:19;;;;;;;;;;;10.70;99.90;;;;;;8380455;28;20066;-64
2021/10/12 15:42:19;;;;;;;;;;;10.60;99.90;;;;;;8395546;28;19912;-65
2021/10/12 15:46:20;;;;;;;;;;;10.50;99.90;;;;;;8395201;28;20379;-64
2021/10/12 15:50:20;;;;;;;;;;;10.70;99.90;;;;;;8395507;28;19912;-64
2021/10/12 15:54:21;;;;;;;;;;;10.80;99.90;;;;;;8395475;28;19913;-65
2021/10/12 15:58:22;;;;;;;;;;;10.70;99.90;;;;;;8394760;28;19913;-64
2021/10/12 16:02:23;;;;;;;;;;;10.70;99.90;;;;;;8380803;28;20366;-64
2021/10/12 16:06:23;;;;;;;;;;;10.60;99.90;;;;;;8385521;28;19920;-65
2021/10/12 16:10:24;;;;;;;;;;;10.50;99.90;;;;;;8382608;28;20007;-64
2021/10/12 16:14:24;;;;;;;;;;;10.20;99.90;;;;;;8377737;28;19924;-64
2021/10/12 16:22:44;;;;;;;;;;;10.00;99.90;;;;;;8366853;28;19979;-65
2021/10/12 16:26:45;;;;;;;;;;;9.90;99.90;;;;;;8372535;28;20642;-66
2021/10/12 16:30:46;;;;;;;;;;;9.90;99.90;;;;;;8370857;28;20505;-65
2021/10/12 16:34:49;;;;;;;;;;;9.90;99.90;;;;;;8370778;28;19913;-65
2021/10/12 16:38:50;;;;;;;;;;;9.80;99.90;;;;;;8372098;28;19986;-65
2021/10/12 16:42:50;;;;;;;;;;;9.80;99.90;;;;;;8368304;28;19916;-65
2021/10/12 16:46:52;;;;;;;;;;;9.70;99.90;;;;;;8369196;28;19972;-65
2021/10/12 16:50:53;;;;;;;;;;;9.60;99.90;;;;;;8368828;28;19936;-65
2021/10/12 16:54:53;;;;;;;;;;;9.70;99.90;;;;;;8363279;28;19916;-66
2021/10/12 16:59:15;;;;;;;;;;;9.60;99.90;;;;;;8379505;28;19962;-65
2021/10/12 17:03:16;;;;;;;;;;;9.60;99.90;;;;;;8392542;28;19909;-65
2021/10/12 17:07:18;;;;;;;;;;;9.60;99.90;;;;;;8387203;28;19919;-65
2021/10/12 17:11:19;;;;;;;;;;;9.50;99.90;;;;;;8374374;28;19912;-67
2021/10/12 17:15:19;;;;;;;;;;;9.50;99.90;;;;;;8386852;28;20621;-66
2021/10/12 17:19:20;;;;;;;;;;;9.50;99.90;;;;;;8374553;28;20394;-66
2021/10/12 17:23:20;;;;;;;;;;;9.50;99.90;;;;;;8363075;28;19925;-66
2021/10/12 17:27:21;;;;;;;;;;;9.60;99.90;;;;;;8364037;28;19970;-66
2021/10/12 17:31:23;;;;;;;;;;;9.50;99.90;;;;;;8373454;28;19955;-65
2021/10/12 17:35:23;;;;;;;;;;;9.50;99.90;;;;;;8373517;28;19912;-65
2021/10/12 17:39:24;;;;;;;;;;;9.40;99.90;;;;;;8371143;28;20345;-66
2021/10/12 17:43:24;;;;;;;;;;;9.40;99.90;;;;;;8373248;28;20146;-66
2021/10/12 17:47:25;;;;;;;;;;;9.40;99.90;;;;;;8370928;28;19913;-65
2021/10/12 17:51:25;;;;;;;;;;;9.40;99.90;;;;;;8367411;28;20335;-65
2021/10/12 17:55:26;;;;;;;;;;;9.30;99.90;;;;;;8365991;28;19917;-65
2021/10/12 17:59:26;;;;;;;;;;;9.30;99.90;;;;;;8372231;28;19920;-65
2021/10/12 18:03:28;;;;;;;;;;;9.30;99.90;;;;;;8367622;28;19966;-64
2021/10/12 18:07:31;;;;;;;;;;;9.20;99.90;;;;;;8363821;28;20398;-65
2021/10/12 18:11:32;;;;;;;;;;;9.20;99.90;;;;;;8366394;28;19912;-64
2021/10/12 18:15:32;;;;;;;;;;;9.20;99.90;;;;;;8365227;28;19916;-65
2021/10/12 18:19:33;;;;;;;;;;;9.20;99.90;;;;;;8358368;28;19916;-65
2021/10/12 18:23:34;;;;;;;;;;;9.10;99.90;;;;;;8356430;28;19916;-65
2021/10/12 18:27:34;;;;;;;;;;;9.00;99.90;;;;;;8361702;28;19908;-66
2021/10/12 18:31:35;;;;;;;;;;;9.10;99.90;;;;;;8362638;28;19916;-65
2021/10/12 18:35:36;;;;;;;;;;;9.00;99.90;;;;;;8357554;28;19917;-65
2021/10/12 18:39:38;;;;;;;;;;;9.00;99.90;;;;;;8359132;28;19927;-66
2021/10/12 18:43:38;;;;;;;;;;;8.90;99.90;;;;;;8361196;28;19962;-65
2021/10/12 18:47:39;;;;;;;;;;;8.90;99.90;;;;;;8361605;28;19912;-65
2021/10/12 18:51:39;;;;;;;;;;;8.90;99.90;;;;;;8351353;28;19920;-65
2021/10/12 18:55:40;;;;;;;;;;;8.80;99.90;;;;;;8348472;28;19927;-66
2021/10/12 18:59:41;;;;;;;;;;;8.90;99.90;;;;;;8366636;28;19924;-65
2021/10/12 19:03:42;;;;;;;;;;;8.90;99.90;;;;;;8378295;28;19917;-65
2021/10/12 19:07:43;;;;;;;;;;;8.90;99.90;;;;;;8357706;28;19912;-65
2021/10/12 19:11:44;;;;;;;;;;;8.80;99.90;;;;;;8362484;28;19932;-65
2021/10/12 19:15:44;;;;;;;;;;;8.80;99.90;;;;;;8363704;28;19938;-65
2021/10/12 19:19:45;;;;;;;;;;;8.80;99.90;;;;;;8353004;28;20392;-65
2021/10/12 19:23:46;;;;;;;;;;;8.80;99.90;;;;;;8379355;28;19925;-65
2021/10/12 19:27:47;;;;;;;;;;;8.90;99.90;;;;;;8353344;28;19920;-65
2021/10/12 19:31:47;;;;;;;;;;;8.90;99.90;;;;;;8359052;28;19952;-65
2021/10/12 19:35:48;;;;;;;;;;;8.90;99.90;;;;;;8361519;28;19916;-65
2021/10/12 19:39:48;;;;;;;;;;;8.90;99.90;;;;;;8357638;28;19968;-65
2021/10/12 19:43:52;;;;;;;;;;;8.80;99.90;;;;;;8357981;28;19919;-65
2021/10/12 19:47:53;;;;;;;;;;;8.90;99.90;;;;;;8360971;28;19917;-66
2021/10/12 19:51:53;;;;;;;;;;;8.70;99.90;;;;;;8370479;28;19923;-65
2021/10/12 19:55:54;;;;;;;;;;;8.80;99.90;;;;;;8366291;28;19913;-65
2021/10/12 19:59:54;;;;;;;;;;;8.70;99.90;;;;;;8361875;28;19916;-71
2021/10/12 20:03:55;;;;;;;;;;;8.80;99.90;;;;;;8374826;28;19912;-72
2021/10/12 20:07:55;;;;;;;;;;;8.70;99.90;;;;;;8372092;28;20357;-72
2021/10/12 20:11:56;;;;;;;;;;;8.70;99.90;;;;;;8375770;28;20310;-72
2021/10/12 20:15:56;;;;;;;;;;;8.80;99.90;;;;;;8373161;28;19920;-72
2021/10/12 20:20:09;;;;;;;;;;;8.70;99.90;;;;;;8369232;28;19924;-66
2021/10/12 20:24:10;;;;;;;;;;;8.80;99.90;;;;;;8364174;28;19924;-66
2021/10/12 20:28:10;;;;;;;;;;;8.70;99.90;;;;;;8362870;28;20003;-66
2021/10/12 20:32:11;;;;;;;;;;;8.70;99.90;;;;;;8378307;28;19912;-66
2021/10/12 20:36:11;;;;;;;;;;;8.70;99.90;;;;;;8374514;28;19935;-66
2021/10/12 20:40:12;;;;;;;;;;;8.70;99.90;;;;;;8360686;28;19921;-66
2021/10/12 20:44:13;;;;;;;;;;;8.80;99.90;;;;;;8360956;28;19909;-66
2021/10/12 20:48:14;;;;;;;;;;;8.80;99.90;;;;;;8360636;28;20382;-66
2021/10/12 20:52:14;;;;;;;;;;;8.70;99.90;;;;;;8383037;28;20379;-66
2021/10/12 20:56:15;;;;;;;;;;;8.70;99.90;;;;;;8366453;28;19924;-65
2021/10/12 21:00:16;;;;;;;;;;;8.70;99.90;;;;;;8385813;28;19952;-66
2021/10/12 21:04:17;;;;;;;;;;;8.70;99.90;;;;;;8363696;28;20295;-66
2021/10/12 21:08:17;;;;;;;;;;;8.60;99.90;;;;;;8360189;28;20003;-66
2021/10/12 21:12:18;;;;;;;;;;;8.60;99.90;;;;;;8360272;28;19975;-66
2021/10/12 21:16:20;;;;;;;;;;;8.70;99.90;;;;;;8359744;28;19999;-66
2021/10/12 21:20:20;;;;;;;;;;;8.50;99.90;;;;;;8387297;28;19913;-66
2021/10/12 21:24:21;;;;;;;;;;;8.60;99.90;;;;;;8392242;28;20398;-66
2021/10/12 21:28:21;;;;;;;;;;;8.50;99.90;;;;;;8392614;28;20023;-66
2021/10/12 21:32:22;;;;;;;;;;;8.50;99.90;;;;;;8392985;28;19912;-66
2021/10/12 21:36:22;;;;;;;;;;;8.50;99.90;;;;;;8392577;28;19955;-66
2021/10/12 21:40:22;;;;;;;;;;;8.40;99.90;;;;;;8392947;28;19954;-66
2021/10/12 21:44:23;;;;;;;;;;;8.50;99.90;;;;;;8392447;28;19923;-66
2021/10/12 21:48:24;;;;;;;;;;;8.50;99.90;;;;;;8392379;28;20365;-66
2021/10/12 21:52:25;;;;;;;;;;;8.50;99.90;;;;;;8391256;28;19912;-66
2021/10/12 21:56:26;;;;;;;;;;;8.50;99.90;;;;;;8392154;28;19913;-66
2021/10/12 22:00:29;;;;;;;;;;;8.40;99.90;;;;;;8392461;28;19913;-65
2021/10/12 22:04:29;;;;;;;;;;;8.30;99.90;;;;;;8390946;28;19908;-66
2021/10/12 22:08:30;;;;;;;;;;;8.20;99.90;;;;;;8392329;28;20603;-66
2021/10/12 22:12:30;;;;;;;;;;;8.10;99.90;;;;;;8390781;28;19913;-66
2021/10/12 22:16:31;;;;;;;;;;;8.00;99.90;;;;;;8391783;28;19916;-66
2021/10/12 22:20:31;;;;;;;;;;;7.90;99.90;;;;;;8391962;28;19966;-66
2021/10/12 22:24:31;;;;;;;;;;;7.90;99.90;;;;;;8391975;28;20378;-66
2021/10/12 22:28:33;;;;;;;;;;;7.90;99.90;;;;;;8390560;28;19915;-66
2021/10/12 22:32:34;;;;;;;;;;;7.90;99.90;;;;;;8391904;28;20480;-66
2021/10/12 22:36:34;;;;;;;;;;;7.90;99.90;;;;;;8395046;28;19915;-66
2021/10/12 22:40:34;;;;;;;;;;;7.80;99.90;;;;;;8398127;28;20349;-67
2021/10/12 22:44:35;;;;;;;;;;;7.80;99.90;;;;;;8397914;28;19912;-66
2021/10/12 22:48:35;;;;;;;;;;;7.80;99.90;;;;;;8397957;28;20436;-66
2021/10/12 22:52:36;;;;;;;;;;;7.90;99.90;;;;;;8398384;28;19912;-67
2021/10/12 22:56:37;;;;;;;;;;;7.80;99.90;;;;;;8396934;28;19912;-66
2021/10/12 23:00:37;;;;;;;;;;;7.80;99.90;;;;;;8397887;28;19920;-67
2021/10/12 23:04:38;;;;;;;;;;;7.80;99.90;;;;;;8397244;28;19912;-66
2021/10/12 23:08:38;;;;;;;;;;;7.80;99.90;;;;;;8396398;28;19947;-67
2021/10/12 23:12:39;;;;;;;;;;;7.60;99.90;;;;;;8397352;28;20279;-66
2021/10/12 23:16:39;;;;;;;;;;;7.60;99.90;;;;;;8396817;28;20270;-66
2021/10/12 23:20:40;;;;;;;;;;;7.30;99.90;;;;;;8396940;28;20517;-67
2021/10/12 23:24:41;;;;;;;;;;;7.40;99.90;;;;;;8396802;28;20393;-66
2021/10/12 23:28:41;;;;;;;;;;;7.60;99.90;;;;;;8396271;28;19978;-66
2021/10/12 23:32:42;;;;;;;;;;;7.60;99.90;;;;;;8396659;28;19912;-66
2021/10/12 23:36:43;;;;;;;;;;;7.50;99.90;;;;;;8396199;28;19908;-66
2021/10/12 23:40:43;;;;;;;;;;;7.30;99.90;;;;;;8396060;28;19948;-66
2021/10/12 23:44:44;;;;;;;;;;;7.30;99.90;;;;;;8396585;28;19999;-67
2021/10/12 23:48:44;;;;;;;;;;;7.20;99.90;;;;;;8395136;28;19922;-66